Akutan, Alaska
Current Conditions -  °F | °C
As of 10:15 AM on Saturday 25 Oct 2014 (Local Time) from PAUT Reporting Station
Clear Clear  
Wind Chill: 33°   Ceiling: Unl
Heat Index: 41°   Visibility: 10mi
Dew Point: 34°   Wind: 15mph
Humidity: 76%   Direction: 310°NW
Pressure: 29.94"   Gusts: NA
Location:  54.14°N, 165.77°W
Report Text: PAUT 251815Z AUTO 31013KT 10SM CLR 05/01 A2994 RMK AO2 T00500010
Loading
Personal Weather Stations






























Interactive Weather Map New forecast layout! Learn more

10-Day Weather Forecast

Advertisements
Track Severe Weather on mobile